createdAt,value
2023-05-05T00:01:25.212Z,3.45
2023-05-05T00:03:52.267Z,4.63
2023-05-05T00:06:19.015Z,2.72
2023-05-05T00:08:46.316Z,4.22
2023-05-05T00:11:13.031Z,6.00
2023-05-05T00:13:39.992Z,3.42
2023-05-05T00:16:07.008Z,4.38
2023-05-05T00:18:33.937Z,3.72
2023-05-05T00:21:01.147Z,3.80
2023-05-05T00:23:36.467Z,4.55
2023-05-05T00:26:03.195Z,2.92
2023-05-05T00:28:30.039Z,5.57
2023-05-05T00:31:00.602Z,5.30
2023-05-05T00:33:27.777Z,2.92
2023-05-05T00:35:54.417Z,3.35
2023-05-05T00:38:21.031Z,2.70
2023-05-05T00:40:47.677Z,3.90
2023-05-05T00:43:14.353Z,3.00
2023-05-05T00:45:43.747Z,3.47
2023-05-05T00:48:11.068Z,3.15
2023-05-05T00:50:38.275Z,2.40
2023-05-05T00:53:06.796Z,3.60
2023-05-05T00:55:34.733Z,2.70
2023-05-05T00:58:03.258Z,5.82
2023-05-05T01:00:30.204Z,2.85
2023-05-05T01:02:57.667Z,5.13
2023-05-05T01:05:27.004Z,3.15
2023-05-05T01:08:13.196Z,3.55
2023-05-05T01:10:49.096Z,3.33
2023-05-05T01:13:45.269Z,4.18
2023-05-05T01:16:20.831Z,3.45
2023-05-05T01:19:04.292Z,3.13
2023-05-05T01:21:38.612Z,3.55
2023-05-05T01:24:39.008Z,3.10
2023-05-05T01:27:30.126Z,3.95
2023-05-05T01:30:15.519Z,4.65
2023-05-05T01:32:55.373Z,7.65
2023-05-05T01:35:43.783Z,2.95
2023-05-05T01:38:21.221Z,2.75
2023-05-05T01:41:01.873Z,2.17
2023-05-05T01:43:33.785Z,2.75
2023-05-05T01:46:02.589Z,2.53
2023-05-05T01:48:33.513Z,3.35
2023-05-05T01:51:03.149Z,4.55
2023-05-05T01:53:31.397Z,4.40
2023-05-05T01:55:59.094Z,2.78
2023-05-05T01:58:27.015Z,2.80
2023-05-05T02:00:56.912Z,4.47
2023-05-05T02:03:25.826Z,2.92
2023-05-05T02:05:53.926Z,5.15
2023-05-05T02:08:21.455Z,4.47
2023-05-05T02:10:50.606Z,4.70
2023-05-05T02:13:20.333Z,4.55
2023-05-05T02:15:47.419Z,3.50
2023-05-05T02:18:14.522Z,2.65
2023-05-05T02:20:41.748Z,5.55
2023-05-05T02:23:08.686Z,3.55
2023-05-05T02:25:42.331Z,4.22
2023-05-05T02:28:18.377Z,4.07
2023-05-05T02:30:55.918Z,4.30
2023-05-05T02:33:25.319Z,4.95
2023-05-05T02:35:54.001Z,4.30
2023-05-05T02:38:27.954Z,5.22
2023-05-05T02:43:31.506Z,3.90
2023-05-05T02:45:58.588Z,7.72
2023-05-05T02:48:26.233Z,6.00
2023-05-05T02:50:54.262Z,5.32
2023-05-05T02:56:18.338Z,2.85
2023-05-05T02:59:04.139Z,5.70
2023-05-05T03:01:54.279Z,3.03
2023-05-05T03:04:34.955Z,2.63
2023-05-05T03:07:11.001Z,6.00
2023-05-05T03:09:50.345Z,2.72
2023-05-05T03:12:22.116Z,4.28
2023-05-05T03:15:00.783Z,4.43
2023-05-05T03:17:31.812Z,4.03
2023-05-05T03:20:02.252Z,3.95
2023-05-05T03:22:38.324Z,2.95
2023-05-05T03:25:08.651Z,5.57
2023-05-05T03:27:35.473Z,4.80
2023-05-05T03:30:02.566Z,7.07
2023-05-05T03:32:31.820Z,3.33
2023-05-05T03:34:58.594Z,3.83
2023-05-05T03:37:30.503Z,3.05
2023-05-05T03:39:57.459Z,3.85
2023-05-05T03:42:24.148Z,4.22
2023-05-05T03:44:53.790Z,2.97
2023-05-05T03:47:24.599Z,5.47
2023-05-05T03:49:53.306Z,4.13
2023-05-05T03:52:19.915Z,5.50
2023-05-05T03:54:46.742Z,3.00
2023-05-05T03:57:13.425Z,3.80
2023-05-05T03:59:40.992Z,9.98
2023-05-05T04:02:08.609Z,3.20
2023-05-05T04:04:35.804Z,6.90
2023-05-05T04:07:02.836Z,3.10
2023-05-05T04:09:29.462Z,7.78
2023-05-05T04:11:56.385Z,11.18
2023-05-05T04:14:23.072Z,5.68
2023-05-05T04:16:51.182Z,4.13
2023-05-05T04:19:18.565Z,3.80
2023-05-05T04:21:45.540Z,3.75
2023-05-05T04:24:12.765Z,3.13
2023-05-05T04:26:39.494Z,3.47
2023-05-05T04:29:06.814Z,3.35
2023-05-05T04:31:33.776Z,3.88
2023-05-05T04:34:00.969Z,6.75
2023-05-05T04:36:27.582Z,4.38
2023-05-05T04:38:54.732Z,3.42
2023-05-05T04:41:21.741Z,3.58
2023-05-05T04:43:48.944Z,6.70
2023-05-05T04:46:15.819Z,5.38
2023-05-05T04:48:42.750Z,3.78
2023-05-05T04:51:09.475Z,4.07
2023-05-05T04:53:37.319Z,4.63
2023-05-05T04:56:04.139Z,4.85
2023-05-05T04:58:31.274Z,3.03
2023-05-05T05:00:58.572Z,4.05
2023-05-05T05:03:25.447Z,6.10
2023-05-05T05:05:53.192Z,8.80
2023-05-05T05:08:19.971Z,6.50
2023-05-05T05:10:46.919Z,3.90
2023-05-05T05:13:13.795Z,4.95
2023-05-05T05:15:40.776Z,3.50
2023-05-05T05:18:07.807Z,5.28
2023-05-05T05:20:34.486Z,4.65
2023-05-05T05:23:04.615Z,5.40
2023-05-05T05:25:34.819Z,4.57
2023-05-05T05:28:10.219Z,5.63
2023-05-05T05:30:52.672Z,5.78
2023-05-05T05:33:19.889Z,3.72
2023-05-05T05:35:47.147Z,6.85
2023-05-05T05:38:15.119Z,3.60
2023-05-05T05:40:42.339Z,4.72
2023-05-05T05:43:09.123Z,12.50
2023-05-05T05:45:37.583Z,4.05
2023-05-05T05:48:05.947Z,5.00
2023-05-05T05:50:32.948Z,7.28
2023-05-05T05:52:59.767Z,3.90
2023-05-05T05:55:27.178Z,4.38
2023-05-05T05:57:54.453Z,4.72
2023-05-05T06:00:21.327Z,7.25
2023-05-05T06:02:55.005Z,6.70
2023-05-05T06:05:25.449Z,5.88
2023-05-05T06:07:52.446Z,4.50
2023-05-05T06:10:28.062Z,6.38
2023-05-05T06:13:03.164Z,9.20
2023-05-05T06:15:31.531Z,5.38
2023-05-05T06:17:59.500Z,4.47
2023-05-05T06:20:26.590Z,8.63
2023-05-05T06:22:54.466Z,8.57
2023-05-05T06:25:22.703Z,4.22
2023-05-05T06:27:50.271Z,4.38
2023-05-05T06:30:17.740Z,3.80
2023-05-05T06:32:44.383Z,3.47
2023-05-05T06:35:11.148Z,3.83
2023-05-05T06:37:37.978Z,3.78
2023-05-05T06:40:05.468Z,4.07
2023-05-05T06:42:32.480Z,6.43
2023-05-05T06:45:00.265Z,4.05
2023-05-05T06:47:26.916Z,5.13
2023-05-05T06:49:53.814Z,5.22
2023-05-05T06:52:22.628Z,3.95
2023-05-05T06:54:49.314Z,3.90
2023-05-05T06:57:16.113Z,3.90
2023-05-05T06:59:42.821Z,3.97
2023-05-05T07:02:09.771Z,10.95
2023-05-05T07:04:36.610Z,4.18
2023-05-05T07:07:03.239Z,5.78
2023-05-05T07:09:29.934Z,6.70
2023-05-05T07:11:56.666Z,5.57
2023-05-05T07:14:24.499Z,4.70
2023-05-05T07:16:51.530Z,7.30
2023-05-05T07:19:18.409Z,4.32
2023-05-05T07:24:11.737Z,7.95
2023-05-05T07:26:38.774Z,4.50
2023-05-05T07:29:05.575Z,4.35
2023-05-05T07:31:32.322Z,3.83
2023-05-05T07:33:59.065Z,5.18
2023-05-05T07:36:27.813Z,6.07
2023-05-05T07:38:54.862Z,4.03
2023-05-05T07:41:21.587Z,5.72
2023-05-05T07:43:48.352Z,5.90
2023-05-05T07:46:15.219Z,4.13
2023-05-05T07:48:42.226Z,4.03
2023-05-05T07:51:09.497Z,6.60
2023-05-05T07:53:36.987Z,5.43
2023-05-05T07:56:03.981Z,4.72
2023-05-05T07:58:30.910Z,5.93
2023-05-05T08:00:57.548Z,6.50
2023-05-05T08:03:24.897Z,7.25
2023-05-05T08:05:54.972Z,8.07
2023-05-05T08:08:24.822Z,9.73
2023-05-05T08:10:53.212Z,9.27
2023-05-05T08:13:20.320Z,10.75
2023-05-05T08:15:47.437Z,10.75
2023-05-05T08:18:14.380Z,10.85
2023-05-05T08:20:41.310Z,11.15
2023-05-05T08:23:07.965Z,11.00
2023-05-05T08:25:34.568Z,10.50
2023-05-05T08:28:01.256Z,11.18
2023-05-05T08:30:28.150Z,7.93
2023-05-05T08:32:55.189Z,13.57
2023-05-05T08:35:22.165Z,12.30
2023-05-05T08:37:48.754Z,11.68
2023-05-05T08:40:15.681Z,9.60
2023-05-05T08:42:42.550Z,12.23
2023-05-05T08:45:10.791Z,10.10
2023-05-05T08:47:38.956Z,10.85
2023-05-05T08:50:06.348Z,10.25
2023-05-05T08:52:41.050Z,10.35
2023-05-05T08:55:10.629Z,11.80
2023-05-05T08:57:45.927Z,11.63
2023-05-05T09:02:42.850Z,13.48
2023-05-05T09:05:10.169Z,9.88
2023-05-05T09:07:38.304Z,13.25
2023-05-05T09:10:05.765Z,16.85
2023-05-05T09:12:32.862Z,11.50
2023-05-05T09:15:03.491Z,10.32
2023-05-05T09:17:30.459Z,9.75
2023-05-05T09:20:04.449Z,10.07
2023-05-05T09:22:39.030Z,8.93
2023-05-05T09:25:07.692Z,9.48
2023-05-05T09:27:48.693Z,11.32
2023-05-05T09:30:18.019Z,8.13
2023-05-05T09:32:49.780Z,12.18
2023-05-05T09:35:18.348Z,10.85
2023-05-05T09:37:45.279Z,13.50
2023-05-05T09:40:14.324Z,11.05
2023-05-05T09:42:41.819Z,14.77
2023-05-05T09:45:17.425Z,16.58
2023-05-05T09:47:48.413Z,9.70
2023-05-05T09:50:18.684Z,12.77
2023-05-05T09:52:59.943Z,10.43
2023-05-05T09:55:26.670Z,8.45
2023-05-05T09:57:53.704Z,8.02
2023-05-05T10:00:20.793Z,8.23
2023-05-05T10:02:47.593Z,10.90
2023-05-05T10:05:16.955Z,10.90
2023-05-05T10:07:45.828Z,8.40
2023-05-05T10:10:14.456Z,7.75
2023-05-05T10:12:41.236Z,10.38
2023-05-05T10:15:09.871Z,10.25
2023-05-05T10:18:05.798Z,12.23
2023-05-05T10:20:36.958Z,12.13
2023-05-05T10:23:07.285Z,8.70
2023-05-05T10:25:42.131Z,14.73
2023-05-05T10:28:11.866Z,8.98
2023-05-05T10:30:44.981Z,8.80
2023-05-05T10:33:31.922Z,9.15
2023-05-05T10:36:02.426Z,8.48
2023-05-05T10:38:31.027Z,12.70
2023-05-05T10:41:02.137Z,9.38
2023-05-05T10:43:31.366Z,11.70
2023-05-05T10:45:59.114Z,9.43
2023-05-05T10:48:40.594Z,8.25
2023-05-05T10:51:07.344Z,8.40
2023-05-05T10:53:44.811Z,8.10
2023-05-05T10:56:19.796Z,8.63
2023-05-05T10:58:58.924Z,9.45
2023-05-05T11:01:34.192Z,6.38
2023-05-05T11:04:20.427Z,9.63
2023-05-05T11:07:11.772Z,6.85
2023-05-05T11:09:55.753Z,8.65
2023-05-05T11:12:22.705Z,8.55
2023-05-05T11:15:24.286Z,7.40
2023-05-05T11:17:51.348Z,9.32
2023-05-05T11:20:18.537Z,8.38
2023-05-05T11:23:03.602Z,8.02
2023-05-05T11:25:36.478Z,10.13
2023-05-05T11:28:09.184Z,8.13
2023-05-05T11:30:59.377Z,6.85
2023-05-05T11:33:33.789Z,7.28
2023-05-05T11:36:08.140Z,6.57
2023-05-05T11:38:56.736Z,9.27
2023-05-05T11:41:32.479Z,7.97
2023-05-05T11:44:12.764Z,8.45
2023-05-05T11:47:02.508Z,8.05
2023-05-05T11:49:33.048Z,6.07
2023-05-05T11:52:12.908Z,7.90
2023-05-05T11:54:41.755Z,6.80
2023-05-05T11:57:09.078Z,7.68
2023-05-05T11:59:37.700Z,7.07
2023-05-05T12:02:04.702Z,7.53
2023-05-05T12:04:32.155Z,10.13
2023-05-05T12:06:59.864Z,8.82
2023-05-05T12:09:27.299Z,6.93
2023-05-05T12:11:55.876Z,7.50
2023-05-05T12:14:23.409Z,6.30
2023-05-05T12:17:17.307Z,5.43
2023-05-05T12:19:55.315Z,11.93
2023-05-05T12:22:27.030Z,5.53
2023-05-05T12:25:02.889Z,4.57
2023-05-05T12:27:30.025Z,5.45
2023-05-05T12:30:10.272Z,6.00
2023-05-05T12:32:37.140Z,7.70
2023-05-05T12:35:04.414Z,6.57
2023-05-05T12:37:31.433Z,6.07
2023-05-05T12:39:58.230Z,8.38
2023-05-05T12:42:25.019Z,7.05
2023-05-05T12:44:52.225Z,5.22
2023-05-05T12:47:32.719Z,6.80
2023-05-05T12:50:00.666Z,5.63
2023-05-05T12:52:44.785Z,6.60
2023-05-05T12:55:12.071Z,5.63
2023-05-05T12:57:39.700Z,7.05
2023-05-05T13:00:17.893Z,4.22
2023-05-05T13:02:44.724Z,6.35
2023-05-05T13:05:11.461Z,6.80
2023-05-05T13:07:50.337Z,6.47
2023-05-05T13:10:17.071Z,5.25
2023-05-05T13:12:43.765Z,6.38
2023-05-05T13:15:11.274Z,4.50
2023-05-05T13:17:37.991Z,4.70
2023-05-05T13:20:06.608Z,4.80
2023-05-05T13:22:33.223Z,5.70
2023-05-05T13:24:59.856Z,4.38
2023-05-05T13:27:27.076Z,4.10
2023-05-05T13:29:53.782Z,6.30
2023-05-05T13:32:20.424Z,5.75
2023-05-05T13:34:47.154Z,5.45
2023-05-05T13:37:14.528Z,6.00
2023-05-05T13:39:41.145Z,5.05
2023-05-05T13:42:07.779Z,4.28
2023-05-05T13:44:35.390Z,4.18
2023-05-05T13:47:02.195Z,4.95
2023-05-05T13:49:28.919Z,6.85
2023-05-05T13:51:56.350Z,5.15
2023-05-05T13:54:23.178Z,5.22
2023-05-05T13:56:49.799Z,4.85
2023-05-05T13:59:16.457Z,6.35
2023-05-05T14:01:43.105Z,5.07
2023-05-05T14:04:09.821Z,4.93
2023-05-05T14:06:36.574Z,4.50
2023-05-05T14:09:05.841Z,4.15
2023-05-05T14:11:32.830Z,4.28
2023-05-05T14:13:59.672Z,4.60
2023-05-05T14:16:26.320Z,4.72
2023-05-05T14:18:53.116Z,4.07
2023-05-05T14:21:19.777Z,6.28
2023-05-05T14:23:46.593Z,3.90
2023-05-05T14:26:13.182Z,3.97
2023-05-05T14:28:40.008Z,5.28
2023-05-05T14:31:06.873Z,5.05
2023-05-05T14:33:33.574Z,7.07
2023-05-05T14:36:00.249Z,6.13
2023-05-05T14:38:26.995Z,4.65
2023-05-05T14:40:53.677Z,7.72
2023-05-05T14:43:20.791Z,4.85
2023-05-05T14:45:47.471Z,5.43
2023-05-05T14:48:14.236Z,7.75
2023-05-05T14:50:42.450Z,4.97
2023-05-05T14:53:09.184Z,5.68
2023-05-05T14:55:35.811Z,4.25
2023-05-05T14:58:02.469Z,3.90
2023-05-05T15:00:29.148Z,5.25
2023-05-05T15:02:57.321Z,6.95
2023-05-05T15:05:24.055Z,7.25
2023-05-05T15:07:50.925Z,4.43
2023-05-05T15:10:19.184Z,4.90
2023-05-05T15:12:47.280Z,8.93
2023-05-05T15:15:13.933Z,5.22
2023-05-05T15:17:41.649Z,4.53
2023-05-05T15:20:08.829Z,6.40
2023-05-05T15:22:35.669Z,4.72
2023-05-05T15:25:02.401Z,3.80
2023-05-05T15:27:30.121Z,5.07
2023-05-05T15:29:56.776Z,7.53
2023-05-05T15:32:23.572Z,6.32
2023-05-05T15:34:50.687Z,5.72
2023-05-05T15:37:17.494Z,5.25
2023-05-05T15:39:44.337Z,4.50
2023-05-05T15:42:11.080Z,5.35
2023-05-05T15:44:37.767Z,4.45
2023-05-05T15:47:05.043Z,4.65
2023-05-05T15:49:31.851Z,4.57
2023-05-05T15:51:58.686Z,4.43
2023-05-05T15:54:25.247Z,4.32
2023-05-05T15:56:52.066Z,5.07
2023-05-05T15:59:19.349Z,4.88
2023-05-05T16:01:46.990Z,4.53
2023-05-05T16:04:14.153Z,3.85
2023-05-05T16:06:41.039Z,3.60
2023-05-05T16:09:07.743Z,6.32
2023-05-05T16:11:34.689Z,4.55
2023-05-05T16:14:01.289Z,4.40
2023-05-05T16:16:28.330Z,4.80
2023-05-05T16:18:55.258Z,4.32
2023-05-05T16:21:21.929Z,3.85
2023-05-05T16:23:48.510Z,7.85
2023-05-05T16:26:15.148Z,4.28
2023-05-05T16:28:41.742Z,4.47
2023-05-05T16:31:10.661Z,3.80
2023-05-05T16:33:40.747Z,4.03
2023-05-05T16:36:09.922Z,7.40
2023-05-05T16:38:36.581Z,8.07
2023-05-05T16:41:03.621Z,3.70
2023-05-05T16:43:30.271Z,3.90
2023-05-05T16:45:56.945Z,4.00
2023-05-05T16:48:23.671Z,4.15
2023-05-05T16:50:50.626Z,3.92
2023-05-05T16:53:17.299Z,4.25
2023-05-05T16:55:43.997Z,4.35
2023-05-05T16:58:10.607Z,5.13
2023-05-05T17:00:37.249Z,6.53
2023-05-05T17:03:03.819Z,8.18
2023-05-05T17:05:30.521Z,5.53
2023-05-05T17:07:57.154Z,3.88
2023-05-05T17:10:23.953Z,5.47
2023-05-05T17:12:50.984Z,6.60
2023-05-05T17:15:17.842Z,5.03
2023-05-05T17:17:44.529Z,5.50
2023-05-05T17:20:11.944Z,5.45
2023-05-05T17:22:38.617Z,5.03
2023-05-05T17:25:05.865Z,4.32
2023-05-05T17:27:32.484Z,4.05
2023-05-05T17:29:59.274Z,7.10
2023-05-05T17:32:26.091Z,6.40
2023-05-05T17:34:52.874Z,5.68
2023-05-05T17:37:19.557Z,4.00
2023-05-05T17:39:46.237Z,4.20
2023-05-05T17:42:13.025Z,4.30
2023-05-05T17:44:39.729Z,5.15
2023-05-05T17:47:07.826Z,4.05
2023-05-05T17:49:34.827Z,7.35
2023-05-05T17:52:01.639Z,5.47
2023-05-05T17:54:28.499Z,6.20
2023-05-05T17:56:55.164Z,3.83
2023-05-05T17:59:21.874Z,4.97
2023-05-05T18:01:48.712Z,4.13
2023-05-05T18:04:15.937Z,4.60
2023-05-05T18:06:42.563Z,4.13
2023-05-05T18:09:11.277Z,4.53
2023-05-05T18:11:38.108Z,3.97
2023-05-05T18:14:04.899Z,4.10
2023-05-05T18:16:31.789Z,6.68
2023-05-05T18:18:58.472Z,5.32
2023-05-05T18:21:25.142Z,6.07
2023-05-05T18:23:57.263Z,6.45
2023-05-05T18:26:28.490Z,6.10
2023-05-05T18:28:55.154Z,6.10
2023-05-05T18:31:22.326Z,7.13
2023-05-05T18:33:48.960Z,6.80
2023-05-05T18:36:16.111Z,6.00
2023-05-05T18:38:42.764Z,11.98
2023-05-05T18:41:09.476Z,12.73
2023-05-05T18:43:36.433Z,10.23
2023-05-05T18:46:03.160Z,9.93
2023-05-05T18:48:30.578Z,5.25
2023-05-05T18:51:01.700Z,4.40
2023-05-05T18:53:30.229Z,7.93
2023-05-05T18:55:57.625Z,5.45
2023-05-05T18:58:24.734Z,6.15
2023-05-05T19:00:51.450Z,6.57
2023-05-05T19:03:19.678Z,6.63
2023-05-05T19:05:46.763Z,5.82
2023-05-05T19:08:13.532Z,5.25
2023-05-05T19:10:40.189Z,6.95
2023-05-05T19:13:07.832Z,7.65
2023-05-05T19:15:34.747Z,5.93
2023-05-05T19:18:01.796Z,3.88
2023-05-05T19:20:31.832Z,6.43
2023-05-05T19:23:03.580Z,4.75
2023-05-05T19:25:31.191Z,4.15
2023-05-05T19:27:58.060Z,9.15
2023-05-05T19:30:25.326Z,15.65
2023-05-05T19:32:52.581Z,7.72
2023-05-05T19:35:19.613Z,12.30
2023-05-05T19:37:46.357Z,10.95
2023-05-05T19:40:13.473Z,10.07
2023-05-05T19:42:40.374Z,4.05
2023-05-05T19:45:08.573Z,4.30
2023-05-05T19:47:36.291Z,4.10
2023-05-05T19:50:03.292Z,5.45
2023-05-05T19:52:30.289Z,5.60
2023-05-05T19:54:57.227Z,5.10
2023-05-05T19:57:23.848Z,4.45
2023-05-05T19:59:50.624Z,7.35
2023-05-05T20:02:17.436Z,5.95
2023-05-05T20:04:44.255Z,8.00
2023-05-05T20:07:11.020Z,3.78
2023-05-05T20:09:37.872Z,4.97
2023-05-05T20:12:04.981Z,4.53
2023-05-05T20:14:32.344Z,6.78
2023-05-05T20:16:59.068Z,10.57
2023-05-05T20:19:25.898Z,5.25
2023-05-05T20:21:52.558Z,9.50
2023-05-05T20:24:19.283Z,7.93
2023-05-05T20:26:46.034Z,4.40
2023-05-05T20:29:14.669Z,6.88
2023-05-05T20:31:41.379Z,7.75
2023-05-05T20:34:08.509Z,6.63
2023-05-05T20:36:35.153Z,9.05
2023-05-05T20:39:01.886Z,5.18
2023-05-05T20:41:28.723Z,5.75
2023-05-05T20:43:55.782Z,4.55
2023-05-05T20:46:22.732Z,6.00
2023-05-05T20:48:49.924Z,6.10
2023-05-05T20:51:16.677Z,7.70
2023-05-05T20:53:43.513Z,4.72
2023-05-05T20:56:10.763Z,4.30
2023-05-05T20:58:37.583Z,8.32
2023-05-05T21:01:04.344Z,7.47
2023-05-05T21:03:31.232Z,8.85
2023-05-05T21:05:57.900Z,4.63
2023-05-05T21:08:24.618Z,8.02
2023-05-05T21:10:51.347Z,5.00
2023-05-05T21:13:18.463Z,4.63
2023-05-05T21:15:45.469Z,5.90
2023-05-05T21:18:12.404Z,5.55
2023-05-05T21:20:39.131Z,6.18
2023-05-05T21:23:06.036Z,6.40
2023-05-05T21:25:32.774Z,7.90
2023-05-05T21:27:59.534Z,7.65
2023-05-05T21:30:26.387Z,5.82
2023-05-05T21:32:53.160Z,4.30
2023-05-05T21:35:20.098Z,5.65
2023-05-05T21:37:47.332Z,4.10
2023-05-05T21:40:16.300Z,7.13
2023-05-05T21:42:43.549Z,9.35
2023-05-05T21:45:11.897Z,7.18
2023-05-05T21:47:39.101Z,4.97
2023-05-05T21:50:06.568Z,4.78
2023-05-05T21:52:33.546Z,6.93
2023-05-05T21:55:00.293Z,4.47
2023-05-05T21:57:27.182Z,9.27
2023-05-05T21:59:53.747Z,5.60
2023-05-05T22:02:20.411Z,5.22
2023-05-05T22:04:48.817Z,11.00
2023-05-05T22:07:15.593Z,6.22
2023-05-05T22:09:43.022Z,6.95
2023-05-05T22:12:09.860Z,5.93
2023-05-05T22:14:36.491Z,5.53
2023-05-05T22:17:03.259Z,5.22
2023-05-05T22:19:29.828Z,5.10
2023-05-05T22:21:58.567Z,4.72
2023-05-05T22:24:25.669Z,6.70
2023-05-05T22:26:52.445Z,5.68
2023-05-05T22:29:19.101Z,7.63
2023-05-05T22:31:45.914Z,7.38
2023-05-05T22:34:12.590Z,5.97
2023-05-05T22:36:39.314Z,6.90
2023-05-05T22:39:06.467Z,4.63
2023-05-05T22:41:33.136Z,4.75
2023-05-05T22:43:59.768Z,4.60
2023-05-05T22:46:26.531Z,5.05
2023-05-05T22:48:54.123Z,6.70
2023-05-05T22:51:20.854Z,5.07
2023-05-05T22:53:47.585Z,5.53
2023-05-05T22:56:14.349Z,6.32
2023-05-05T22:58:41.096Z,5.07
2023-05-05T23:01:08.159Z,5.13
2023-05-05T23:03:34.787Z,4.72
2023-05-05T23:06:01.459Z,6.97
2023-05-05T23:08:28.139Z,6.95
2023-05-05T23:10:55.948Z,6.30
2023-05-05T23:13:22.640Z,4.78
2023-05-05T23:15:49.391Z,5.68
2023-05-05T23:18:15.947Z,5.32
2023-05-05T23:20:42.617Z,6.97
2023-05-05T23:23:09.267Z,8.18
2023-05-05T23:25:36.002Z,5.45
2023-05-05T23:28:02.656Z,5.38
2023-05-05T23:30:29.532Z,4.43
2023-05-05T23:32:57.438Z,4.88
2023-05-05T23:35:24.584Z,5.43
2023-05-05T23:37:51.239Z,4.03
2023-05-05T23:40:17.993Z,4.97
2023-05-05T23:42:44.637Z,6.15
2023-05-05T23:45:11.706Z,5.72
2023-05-05T23:47:38.598Z,4.47
2023-05-05T23:50:06.631Z,7.50
2023-05-05T23:52:33.369Z,6.65
2023-05-05T23:55:00.129Z,6.65
2023-05-05T23:57:26.802Z,4.97
2023-05-05T23:59:53.665Z,6.53
